Time;durP1;ratioP1;P1;durP2;ratioP2;P2;SDS_P1;SDS_P2;PMS_P1;PMS_P2;Temp;Humidity;BMP_temperature;BMP_pressure;BME280_temperature;BME280_humidity;BME280_pressure;Samples;Min_cycle;Max_cycle;Signal;HPM_P1;HPM_P2
2022/03/22 00:00:10;;;;;;;63.47;24.10;;;10.30;39.00;;;;;;5008182;28;20191;-47
2022/03/22 00:02:42;;;;;;;61.70;24.07;;;10.20;38.90;;;;;;4991537;28;20215;-48
2022/03/22 00:05:09;;;;;;;88.73;32.50;;;10.20;39.00;;;;;;5005646;28;20761;-46
2022/03/22 00:07:37;;;;;;;80.30;28.17;;;10.10;39.10;;;;;;4988088;28;20211;-50
2022/03/22 00:10:04;;;;;;;85.87;31.10;;;10.20;39.20;;;;;;5002287;28;20189;-48
2022/03/22 00:12:35;;;;;;;88.93;33.13;;;10.20;39.30;;;;;;5009791;28;20264;-49
2022/03/22 00:15:02;;;;;;;72.23;27.57;;;10.10;39.20;;;;;;5000734;28;20318;-49
2022/03/22 00:17:29;;;;;;;82.53;29.67;;;10.10;39.30;;;;;;5004576;28;20201;-46
2022/03/22 00:19:56;;;;;;;78.07;29.00;;;10.00;39.40;;;;;;5009457;28;20241;-50
2022/03/22 00:22:24;;;;;;;82.13;30.57;;;10.00;39.40;;;;;;5009239;28;20195;-47
2022/03/22 00:24:51;;;;;;;66.00;25.43;;;9.90;40.30;;;;;;5008169;28;20195;-47
2022/03/22 00:27:18;;;;;;;65.73;25.87;;;9.90;40.40;;;;;;5007039;28;20194;-49
2022/03/22 00:29:47;;;;;;;58.63;24.30;;;9.90;40.40;;;;;;5009649;28;20750;-48
2022/03/22 00:32:14;;;;;;;60.80;23.37;;;9.90;40.40;;;;;;5002405;28;20203;-45
2022/03/22 00:34:44;;;;;;;53.97;21.20;;;9.80;40.40;;;;;;5008780;28;20202;-46
2022/03/22 00:37:14;;;;;;;50.03;20.80;;;9.80;40.50;;;;;;5009134;28;20670;-47
2022/03/22 00:39:41;;;;;;;43.77;19.13;;;9.70;40.40;;;;;;5009650;28;20780;-48
2022/03/22 00:42:10;;;;;;;74.20;29.00;;;9.80;40.60;;;;;;5009747;28;20251;-49
2022/03/22 00:44:38;;;;;;;63.57;27.37;;;9.80;40.80;;;;;;5013950;28;20224;-47
2022/03/22 00:47:08;;;;;;;51.83;23.67;;;9.80;40.70;;;;;;5012842;28;20203;-49
2022/03/22 00:49:36;;;;;;;60.50;25.00;;;9.80;40.60;;;;;;5012232;28;20681;-46
2022/03/22 00:52:04;;;;;;;57.73;24.33;;;9.80;40.70;;;;;;5011129;28;20196;-49
2022/03/22 00:54:32;;;;;;;45.77;20.73;;;9.80;40.60;;;;;;5013557;28;20286;-47
2022/03/22 00:56:59;;;;;;;48.77;20.37;;;9.90;40.60;;;;;;5012355;28;20737;-49
2022/03/22 01:02:13;;;;;;;47.57;20.90;;;9.80;40.50;;;;;;4994963;28;20193;-47
2022/03/22 01:04:40;;;;;;;42.80;17.87;;;9.80;40.50;;;;;;5012382;28;20193;-46
2022/03/22 01:07:07;;;;;;;43.43;18.80;;;9.80;40.50;;;;;;5010762;28;20273;-43
2022/03/22 01:09:34;;;;;;;40.93;17.83;;;9.80;40.60;;;;;;5011207;28;20587;-45
2022/03/22 01:12:02;;;;;;;45.83;19.53;;;9.70;40.50;;;;;;5012642;28;20207;-46
2022/03/22 01:14:29;;;;;;;47.17;19.87;;;9.60;40.50;;;;;;5012479;28;20197;-48
2022/03/22 01:16:56;;;;;;;54.13;23.00;;;9.60;40.60;;;;;;5007255;28;20267;-50
2022/03/22 01:19:25;;;;;;;50.43;21.37;;;9.60;40.80;;;;;;5012799;28;20274;-46
2022/03/22 01:21:52;;;;;;;41.93;19.83;;;9.60;40.80;;;;;;5012505;28;20204;-45
2022/03/22 01:24:20;;;;;;;38.50;17.37;;;9.60;40.80;;;;;;5007782;28;20199;-46
2022/03/22 01:26:47;;;;;;;46.07;21.43;;;9.60;40.70;;;;;;5012416;28;20208;-46
2022/03/22 01:29:14;;;;;;;48.23;20.57;;;9.60;40.90;;;;;;5013319;28;20293;-49
2022/03/22 01:31:41;;;;;;;42.10;19.17;;;9.50;41.00;;;;;;5009186;28;20633;-48
2022/03/22 01:34:09;;;;;;;39.63;17.20;;;9.60;41.00;;;;;;5011400;28;20203;-50
2022/03/22 01:36:37;;;;;;;37.03;16.43;;;9.60;41.00;;;;;;5010436;28;20226;-50
2022/03/22 01:39:05;;;;;;;43.43;18.53;;;9.60;40.90;;;;;;5009768;28;20196;-50
2022/03/22 01:41:32;;;;;;;40.80;17.23;;;9.60;41.00;;;;;;5012327;28;20688;-51
2022/03/22 01:43:59;;;;;;;32.13;14.83;;;9.50;41.00;;;;;;5012893;28;20574;-49
2022/03/22 01:46:27;;;;;;;30.67;15.47;;;9.60;41.00;;;;;;5009017;28;20672;-52
2022/03/22 01:48:55;;;;;;;37.23;15.27;;;9.50;40.90;;;;;;5003236;28;20191;-53
2022/03/22 01:51:22;;;;;;;30.87;14.63;;;9.50;41.00;;;;;;5011847;28;20208;-52
2022/03/22 01:53:51;;;;;;;30.27;13.87;;;9.50;41.00;;;;;;5010038;28;20197;-49
2022/03/22 01:56:18;;;;;;;31.50;14.60;;;9.40;41.00;;;;;;5012124;28;20186;-48
2022/03/22 01:58:47;;;;;;;35.17;15.20;;;9.40;41.00;;;;;;5011060;28;20248;-50
2022/03/22 02:06:47;;;;;;;34.83;15.30;;;9.40;41.00;;;;;;5014868;28;20291;-46
2022/03/22 02:09:16;;;;;;;30.67;14.67;;;9.40;41.10;;;;;;5009790;28;20678;-52
2022/03/22 02:11:43;;;;;;;32.23;15.47;;;9.30;41.10;;;;;;5011652;28;20207;-50
2022/03/22 02:14:10;;;;;;;33.70;15.43;;;9.30;41.30;;;;;;5010494;28;20211;-51
2022/03/22 02:16:37;;;;;;;29.47;13.60;;;9.30;41.50;;;;;;5010531;28;20192;-53
2022/03/22 02:19:08;;;;;;;36.80;14.93;;;9.20;41.50;;;;;;5011900;28;20196;-51
2022/03/22 02:21:40;;;;;;;31.87;15.40;;;9.20;41.60;;;;;;5006788;28;20678;-53
2022/03/22 02:24:09;;;;;;;30.50;13.63;;;9.10;42.20;;;;;;5009882;28;20362;-52
2022/03/22 02:26:38;;;;;;;41.90;16.23;;;9.10;41.70;;;;;;4993379;28;20752;-53
2022/03/22 02:29:06;;;;;;;33.43;15.00;;;9.00;41.80;;;;;;5012090;28;20274;-50
2022/03/22 02:31:33;;;;;;;37.80;15.77;;;9.00;41.90;;;;;;4992879;28;20204;-48
2022/03/22 02:34:01;;;;;;;40.57;17.70;;;9.00;41.90;;;;;;5008473;28;20203;-50
2022/03/22 02:36:28;;;;;;;38.87;17.53;;;9.00;41.90;;;;;;5011004;28;20192;-47
2022/03/22 02:38:55;;;;;;;38.20;16.40;;;9.00;42.00;;;;;;4993617;28;20213;-53
2022/03/22 02:41:25;;;;;;;41.63;17.83;;;8.90;42.00;;;;;;5008681;28;20223;-47
2022/03/22 02:43:54;;;;;;;39.83;17.27;;;8.60;41.70;;;;;;5011835;28;20219;-47
2022/03/22 02:46:22;;;;;;;55.53;25.03;;;8.90;42.00;;;;;;5010345;28;20281;-45
2022/03/22 02:48:49;;;;;;;69.40;26.80;;;8.80;42.10;;;;;;5006765;28;20262;-51
2022/03/22 02:51:17;;;;;;;84.27;33.37;;;8.80;42.20;;;;;;5011621;28;20196;-48
2022/03/22 02:53:44;;;;;;;90.60;34.93;;;8.80;42.40;;;;;;5010265;28;20204;-45
2022/03/22 02:56:11;;;;;;;94.03;38.40;;;8.70;42.50;;;;;;5007981;28;20188;-47
2022/03/22 02:58:40;;;;;;;81.50;31.83;;;8.50;42.80;;;;;;5011503;28;20199;-47
2022/03/22 03:01:07;;;;;;;65.40;26.53;;;8.30;42.70;;;;;;5010251;28;20199;-46
2022/03/22 03:03:34;;;;;;;60.73;25.93;;;8.20;42.70;;;;;;5005825;28;20285;-48
2022/03/22 03:06:01;;;;;;;53.00;22.43;;;8.10;42.80;;;;;;5014127;28;20268;-45
2022/03/22 03:08:29;;;;;;;55.70;22.13;;;8.10;42.80;;;;;;5018301;28;20214;-45
2022/03/22 03:10:56;;;;;;;45.80;18.90;;;8.00;42.80;;;;;;5007001;28;20195;-47
2022/03/22 03:13:23;;;;;;;40.43;17.63;;;8.00;42.90;;;;;;5015105;28;20202;-48
2022/03/22 03:15:52;;;;;;;46.43;20.27;;;8.00;42.90;;;;;;5013957;28;20198;-47
2022/03/22 03:18:19;;;;;;;48.33;19.77;;;8.00;43.00;;;;;;5006316;28;20640;-48
2022/03/22 03:20:46;;;;;;;62.17;23.80;;;8.00;43.00;;;;;;5013399;28;20234;-46
2022/03/22 03:23:13;;;;;;;48.97;21.00;;;8.00;43.10;;;;;;5014461;28;20241;-46
2022/03/22 03:25:40;;;;;;;43.57;19.70;;;8.00;43.00;;;;;;4982713;28;20207;-47
2022/03/22 03:28:09;;;;;;;41.80;17.93;;;8.10;43.00;;;;;;5015491;28;20203;-50
2022/03/22 03:30:36;;;;;;;39.70;16.70;;;8.10;42.90;;;;;;5003886;28;20201;-48
2022/03/22 03:33:05;;;;;;;34.07;15.67;;;8.10;42.80;;;;;;5015345;28;20550;-49
2022/03/22 03:35:32;;;;;;;43.40;18.70;;;8.10;42.80;;;;;;5010010;28;20190;-50
2022/03/22 03:37:59;;;;;;;38.70;17.20;;;8.10;42.90;;;;;;5009843;28;20319;-45
2022/03/22 03:41:53;;;;;;;58.43;24.80;;;8.20;43.00;;;;;;5015000;28;20207;-45
2022/03/22 03:43:14;;;;;;;58.13;24.87;;;8.10;43.10;;;;;;5015099;28;20205;-50
2022/03/22 03:48:27;;;;;;;39.20;17.63;;;8.00;43.30;;;;;;5026466;28;20344;-47
2022/03/22 03:50:54;;;;;;;42.83;19.33;;;8.00;43.30;;;;;;5016089;28;20191;-46
2022/03/22 03:53:23;;;;;;;39.10;16.97;;;7.90;43.30;;;;;;5014286;28;20194;-45
2022/03/22 03:55:50;;;;;;;49.60;22.40;;;7.80;43.30;;;;;;5005646;28;20631;-46
2022/03/22 03:58:17;;;;;;;45.87;19.07;;;7.90;43.60;;;;;;5008081;28;20195;-49
2022/03/22 04:00:44;;;;;;;52.27;21.37;;;7.90;43.60;;;;;;5016577;28;20203;-46
2022/03/22 04:03:11;;;;;;;38.67;18.27;;;7.90;43.60;;;;;;5016908;28;20191;-50
2022/03/22 04:05:40;;;;;;;37.50;15.73;;;8.00;43.60;;;;;;5017357;28;20259;-48
2022/03/22 04:08:07;;;;;;;44.30;18.53;;;7.90;43.50;;;;;;5003906;28;20227;-52
2022/03/22 04:10:34;;;;;;;42.10;18.73;;;7.90;43.60;;;;;;5009376;28;20202;-50
2022/03/22 04:13:02;;;;;;;38.97;16.83;;;7.90;43.50;;;;;;5008647;28;20202;-48
2022/03/22 04:15:29;;;;;;;35.87;15.93;;;7.90;43.50;;;;;;5004275;28;20276;-45
2022/03/22 04:17:59;;;;;;;38.17;16.23;;;7.90;43.50;;;;;;4992394;28;20237;-46
2022/03/22 04:20:26;;;;;;;40.17;16.67;;;7.90;43.50;;;;;;5009680;28;20294;-48
2022/03/22 04:22:55;;;;;;;44.43;17.47;;;7.90;43.50;;;;;;5003080;28;20398;-45
2022/03/22 04:25:22;;;;;;;80.80;29.40;;;7.80;43.50;;;;;;5006804;28;20206;-47
2022/03/22 04:33:20;;;;;;;64.27;26.80;;;7.80;43.70;;;;;;4983424;28;20280;-45
2022/03/22 04:35:48;;;;;;;69.47;28.00;;;7.90;43.80;;;;;;5006021;28;20658;-45
2022/03/22 04:38:16;;;;;;;58.33;25.37;;;7.80;44.00;;;;;;5007855;28;20198;-46
2022/03/22 04:40:43;;;;;;;67.03;24.47;;;7.80;43.90;;;;;;4999637;28;20193;-44
2022/03/22 04:43:10;;;;;;;54.03;22.37;;;7.80;44.00;;;;;;5004375;28;20203;-50
2022/03/22 04:45:37;;;;;;;48.00;20.77;;;7.70;44.00;;;;;;4991590;28;20207;-48
2022/03/22 04:48:05;;;;;;;44.00;18.43;;;7.70;43.90;;;;;;5001086;28;20234;-46
2022/03/22 04:50:32;;;;;;;37.33;16.50;;;7.60;43.80;;;;;;4995599;28;20289;-47
2022/03/22 04:58:29;;;;;;;59.13;24.97;;;7.60;44.10;;;;;;5009889;28;20209;-50
2022/03/22 05:00:56;;;;;;;62.00;23.57;;;7.60;44.50;;;;;;5005654;28;20559;-43
2022/03/22 05:03:23;;;;;;;67.23;27.57;;;7.50;44.50;;;;;;5001494;28;20568;-45
2022/03/22 05:08:35;;;;;;;59.10;24.17;;;7.50;44.70;;;;;;5027422;28;20229;-48
2022/03/22 05:11:03;;;;;;;46.73;20.23;;;7.40;44.70;;;;;;5028016;28;20359;-47
2022/03/22 05:13:30;;;;;;;43.67;18.60;;;7.30;44.60;;;;;;5028760;28;20198;-46
2022/03/22 05:15:58;;;;;;;43.63;19.50;;;7.20;44.60;;;;;;5023676;28;20228;-43
2022/03/22 05:18:26;;;;;;;45.20;19.27;;;7.20;44.70;;;;;;5028755;28;20215;-47
2022/03/22 05:20:53;;;;;;;38.30;17.80;;;7.10;44.80;;;;;;5025567;28;20643;-44
2022/03/22 05:23:21;;;;;;;42.43;19.10;;;7.10;44.80;;;;;;5010369;28;20292;-44
2022/03/22 05:25:48;;;;;;;39.03;16.60;;;7.00;44.70;;;;;;5028655;28;20763;-44
2022/03/22 05:28:16;;;;;;;39.53;16.60;;;7.00;44.80;;;;;;5029656;28;20219;-47
2022/03/22 05:30:43;;;;;;;41.27;18.10;;;7.10;44.80;;;;;;5032103;28;20711;-45
2022/03/22 05:33:10;;;;;;;36.23;17.23;;;7.00;44.90;;;;;;5032275;28;20562;-48
2022/03/22 05:35:38;;;;;;;38.37;18.00;;;7.10;44.90;;;;;;5029783;28;20656;-43
2022/03/22 05:38:05;;;;;;;41.67;18.53;;;7.10;44.90;;;;;;5030897;28;20618;-45
2022/03/22 05:40:32;;;;;;;37.47;16.53;;;7.10;45.00;;;;;;5032132;28;20211;-45
2022/03/22 05:43:00;;;;;;;46.40;18.83;;;7.10;44.90;;;;;;5011789;28;20202;-45
2022/03/22 05:45:28;;;;;;;48.80;21.03;;;7.10;44.90;;;;;;5031495;28;20984;-44
2022/03/22 05:47:56;;;;;;;49.93;21.33;;;7.20;45.00;;;;;;5031996;28;20634;-45
2022/03/22 05:50:23;;;;;;;54.37;21.83;;;7.20;45.10;;;;;;5031858;28;20594;-44
2022/03/22 05:52:50;;;;;;;62.67;23.67;;;7.30;45.10;;;;;;5029270;28;20192;-45
2022/03/22 05:55:18;;;;;;;51.23;20.57;;;7.30;45.00;;;;;;5032083;28;20203;-46
2022/03/22 05:57:45;;;;;;;61.43;24.50;;;7.30;45.00;;;;;;5032184;28;20529;-45
2022/03/22 06:00:14;;;;;;;51.87;21.70;;;7.30;45.10;;;;;;5029394;28;20556;-47
2022/03/22 06:02:42;;;;;;;65.13;25.97;;;7.30;45.00;;;;;;5023903;28;20210;-47
2022/03/22 06:05:11;;;;;;;54.03;22.63;;;7.30;45.10;;;;;;5031540;28;20187;-47
2022/03/22 06:07:39;;;;;;;56.97;23.77;;;7.40;45.20;;;;;;5027642;28;20206;-46
2022/03/22 06:10:07;;;;;;;56.03;22.93;;;7.40;45.20;;;;;;5032248;28;20204;-50
2022/03/22 06:12:38;;;;;;;53.30;22.60;;;7.50;45.30;;;;;;5031810;28;20206;-44
2022/03/22 06:15:16;;;;;;;49.77;21.47;;;7.60;45.30;;;;;;5028970;28;20199;-45
2022/03/22 06:17:45;;;;;;;52.47;22.30;;;7.70;45.30;;;;;;5031120;28;20198;-45
2022/03/22 06:20:13;;;;;;;50.80;21.63;;;7.70;45.30;;;;;;5031621;28;20724;-46
2022/03/22 06:22:40;;;;;;;51.37;21.50;;;7.70;45.30;;;;;;5031119;28;20200;-44
2022/03/22 06:25:08;;;;;;;47.73;20.57;;;7.80;45.30;;;;;;5030970;28;20343;-44
2022/03/22 06:27:36;;;;;;;50.83;20.63;;;8.00;45.20;;;;;;5031310;28;20297;-45
2022/03/22 06:30:04;;;;;;;50.73;22.73;;;8.30;45.10;;;;;;5011703;28;20351;-45
2022/03/22 06:32:32;;;;;;;68.43;25.70;;;8.40;44.90;;;;;;5029638;28;20676;-44
2022/03/22 06:35:00;;;;;;;58.50;25.07;;;8.60;44.80;;;;;;5031343;28;20210;-47
2022/03/22 06:37:27;;;;;;;61.10;26.13;;;8.70;44.50;;;;;;5028953;28;20192;-48
2022/03/22 06:39:55;;;;;;;74.93;29.70;;;8.80;44.40;;;;;;5029697;28;20240;-45
2022/03/22 06:42:22;;;;;;;71.73;30.10;;;8.80;44.40;;;;;;5029554;28;20204;-47
2022/03/22 06:44:49;;;;;;;76.07;29.00;;;8.90;44.30;;;;;;5029152;28;20248;-47
2022/03/22 06:47:16;;;;;;;70.33;30.63;;;8.90;44.30;;;;;;5029314;28;20214;-45
2022/03/22 06:49:43;;;;;;;71.20;29.57;;;9.00;44.30;;;;;;5031309;28;20377;-48
2022/03/22 06:52:12;;;;;;;63.00;27.27;;;9.00;44.40;;;;;;5030957;28;20206;-49
2022/03/22 06:54:39;;;;;;;58.93;24.87;;;9.10;44.40;;;;;;5027865;28;20198;-48
2022/03/22 06:57:06;;;;;;;55.93;24.50;;;9.10;44.30;;;;;;5031019;28;20196;-45
2022/03/22 06:59:35;;;;;;;64.53;26.80;;;9.20;44.20;;;;;;5031234;28;20252;-49
2022/03/22 07:02:04;;;;;;;47.50;21.80;;;9.20;44.20;;;;;;5028884;28;20213;-44
2022/03/22 07:04:32;;;;;;;60.10;24.93;;;9.30;44.10;;;;;;5029209;28;20202;-45
2022/03/22 07:06:59;;;;;;;51.43;23.47;;;9.30;44.10;;;;;;5013873;28;20233;-50
2022/03/22 07:09:28;;;;;;;64.40;25.33;;;9.40;44.00;;;;;;5015275;28;20203;-46
2022/03/22 07:11:56;;;;;;;60.27;25.13;;;9.40;43.90;;;;;;5013717;28;20199;-45
2022/03/22 07:14:25;;;;;;;56.73;24.60;;;9.50;43.70;;;;;;4995620;28;20207;-47
2022/03/22 07:16:53;;;;;;;50.40;22.73;;;9.60;43.50;;;;;;5002740;28;20183;-48
2022/03/22 07:19:22;;;;;;;57.10;24.47;;;9.70;43.40;;;;;;5016217;28;20219;-52
2022/03/22 07:21:50;;;;;;;55.90;23.43;;;9.70;43.30;;;;;;5015318;28;20199;-50
2022/03/22 07:24:19;;;;;;;59.93;25.83;;;9.80;43.20;;;;;;5008420;28;20313;-48
2022/03/22 07:26:48;;;;;;;47.47;22.80;;;9.80;43.00;;;;;;5009655;28;20675;-47
2022/03/22 07:29:15;;;;;;;63.43;26.90;;;9.90;43.10;;;;;;5014691;28;20214;-48
2022/03/22 07:31:42;;;;;;;61.33;26.90;;;10.00;42.10;;;;;;5004827;28;20204;-52
2022/03/22 07:34:12;;;;;;;58.73;25.67;;;10.10;42.00;;;;;;4993753;28;20211;-53
2022/03/22 07:36:39;;;;;;;47.30;22.13;;;10.20;41.80;;;;;;5010695;28;20623;-48
2022/03/22 07:39:07;;;;;;;65.67;26.63;;;10.30;41.60;;;;;;4999099;28;20294;-46
2022/03/22 07:41:36;;;;;;;54.93;22.87;;;10.40;41.50;;;;;;5009314;28;20206;-47
2022/03/22 07:44:05;;;;;;;44.47;20.73;;;10.50;41.40;;;;;;5008675;28;20199;-47
2022/03/22 07:46:34;;;;;;;54.87;25.50;;;10.50;41.40;;;;;;4991817;28;20627;-47
2022/03/22 07:54:26;;;;;;;57.03;25.93;;;11.00;42.10;;;;;;5017750;28;20206;-49
2022/03/22 07:56:53;;;;;;;56.23;25.60;;;11.10;41.90;;;;;;5014757;28;20199;-45
2022/03/22 07:59:24;;;;;;;53.97;23.53;;;11.20;41.80;;;;;;5001137;28;20211;-48
2022/03/22 08:01:51;;;;;;;42.87;21.37;;;11.40;41.80;;;;;;5012600;28;20222;-46
2022/03/22 08:04:19;;;;;;;53.17;23.50;;;11.50;41.80;;;;;;5014636;28;20198;-48
2022/03/22 08:06:46;;;;;;;58.70;25.93;;;11.80;42.00;;;;;;5017837;28;20231;-46
2022/03/22 08:09:13;;;;;;;50.80;22.67;;;12.90;41.40;;;;;;5016338;28;20632;-46
2022/03/22 08:11:41;;;;;;;53.70;24.37;;;14.40;40.10;;;;;;5013217;28;20291;-48
2022/03/22 08:14:08;;;;;;;49.03;22.60;;;15.80;38.60;;;;;;5013719;28;20191;-47
2022/03/22 08:16:37;;;;;;;54.00;25.47;;;17.00;37.50;;;;;;5018540;28;20210;-45
2022/03/22 08:19:05;;;;;;;43.93;21.87;;;17.90;35.60;;;;;;5014043;28;20243;-48
2022/03/22 08:21:32;;;;;;;46.10;22.40;;;18.70;34.80;;;;;;4998702;28;20300;-46
2022/03/22 08:23:59;;;;;;;50.83;23.40;;;19.40;33.90;;;;;;5007874;28;20205;-47
2022/03/22 08:26:27;;;;;;;48.17;22.00;;;20.10;33.10;;;;;;5016010;28;20198;-45
2022/03/22 08:28:55;;;;;;;43.00;20.00;;;20.50;32.10;;;;;;5012269;28;20215;-45
2022/03/22 08:31:22;;;;;;;36.53;19.97;;;21.10;32.00;;;;;;5006817;28;20663;-50
2022/03/22 08:33:53;;;;;;;34.03;18.13;;;21.70;31.60;;;;;;5007949;28;20205;-45
2022/03/22 08:36:21;;;;;;;37.03;18.70;;;22.20;31.30;;;;;;5004458;28;20203;-47
2022/03/22 08:38:49;;;;;;;40.27;22.07;;;22.80;30.60;;;;;;5008506;28;20199;-48
2022/03/22 08:41:16;;;;;;;37.90;18.83;;;23.30;29.90;;;;;;4990728;28;20215;-48
2022/03/22 08:43:43;;;;;;;33.97;19.00;;;23.60;29.70;;;;;;5002770;28;20213;-52
2022/03/22 08:46:11;;;;;;;40.30;20.60;;;24.10;29.50;;;;;;5000592;28;20641;-47
2022/03/22 08:48:38;;;;;;;34.70;18.52;;;24.50;28.80;;;;;;5003957;28;20638;-45
2022/03/22 08:51:06;;;;;;;39.38;20.35;;;24.80;28.70;;;;;;5002528;28;20198;-44
2022/03/22 08:53:34;;;;;;;42.00;21.73;;;25.20;28.30;;;;;;5007451;28;20205;-49
2022/03/22 08:56:03;;;;;;;36.42;20.83;;;25.50;27.30;;;;;;4996109;28;20759;-48
2022/03/22 08:58:31;;;;;;;30.25;17.50;;;25.50;27.20;;;;;;4999351;28;20275;-45
2022/03/22 09:00:58;;;;;;;35.95;18.75;;;25.70;27.40;;;;;;5005397;28;20545;-50
2022/03/22 09:03:26;;;;;;;32.83;18.73;;;25.70;27.50;;;;;;5011309;28;20285;-46
2022/03/22 09:06:07;;;;;;;32.88;19.20;;;25.90;26.70;;;;;;5016010;28;20650;-47
2022/03/22 09:08:37;;;;;;;34.50;19.05;;;26.30;26.30;;;;;;5011978;28;20210;-46
2022/03/22 09:11:04;;;;;;;35.53;20.65;;;26.50;25.80;;;;;;5008034;28;20246;-47
2022/03/22 09:13:32;;;;;;;38.22;20.38;;;26.50;25.20;;;;;;4991540;28;20213;-49
2022/03/22 09:15:59;;;;;;;42.70;22.63;;;26.50;25.20;;;;;;5009891;28;20205;-44
2022/03/22 09:18:26;;;;;;;37.45;20.65;;;26.10;24.90;;;;;;5009965;28;20211;-49
2022/03/22 09:20:54;;;;;;;30.27;16.75;;;25.70;25.00;;;;;;5012234;28;20230;-48
2022/03/22 09:23:22;;;;;;;29.08;17.92;;;25.80;25.60;;;;;;5010438;28;20223;-47
2022/03/22 09:25:50;;;;;;;34.35;19.10;;;26.30;25.10;;;;;;5012547;28;20195;-49
2022/03/22 09:28:17;;;;;;;38.38;19.70;;;26.90;24.70;;;;;;4994134;28;20231;-49
2022/03/22 09:30:48;;;;;;;32.05;18.02;;;27.50;24.40;;;;;;5011892;28;20241;-44
2022/03/22 09:33:15;;;;;;;33.00;19.13;;;27.90;24.30;;;;;;5004751;28;20226;-46
2022/03/22 09:35:43;;;;;;;34.03;19.48;;;28.40;23.90;;;;;;5009462;28;20196;-46
2022/03/22 09:38:10;;;;;;;30.83;18.95;;;28.70;23.90;;;;;;5011467;28;20282;-45
2022/03/22 09:40:37;;;;;;;30.77;18.83;;;28.90;23.30;;;;;;5008169;28;20362;-46
2022/03/22 09:43:09;;;;;;;34.80;19.30;;;29.20;23.00;;;;;;5009840;28;20281;-50
2022/03/22 09:45:36;;;;;;;27.73;17.45;;;29.40;22.60;;;;;;5009195;28;20242;-46
2022/03/22 09:48:05;;;;;;;25.88;15.70;;;29.60;22.80;;;;;;5010092;28;20237;-49
2022/03/22 09:53:18;;;;;;;32.78;18.98;;;30.40;22.80;;;;;;5010707;28;20302;-46
2022/03/22 09:55:45;;;;;;;26.33;15.55;;;30.60;22.20;;;;;;5011527;28;20571;-48
2022/03/22 09:58:14;;;;;;;27.25;17.25;;;30.80;22.40;;;;;;5011326;28;20282;-47
2022/03/22 10:00:42;;;;;;;28.10;17.95;;;30.90;22.30;;;;;;5010968;28;20237;-48
2022/03/22 10:03:17;;;;;;;24.15;15.13;;;31.30;21.90;;;;;;5010951;28;20201;-48
2022/03/22 10:05:45;;;;;;;27.27;16.60;;;31.40;22.10;;;;;;5004052;28;20235;-49
2022/03/22 10:08:12;;;;;;;31.33;17.30;;;31.60;21.70;;;;;;5009025;28;20298;-44
2022/03/22 10:10:54;;;;;;;32.35;18.50;;;31.80;21.30;;;;;;5011079;28;20203;-48
2022/03/22 10:13:23;;;;;;;23.33;15.85;;;31.60;20.90;;;;;;4990084;28;20209;-48
2022/03/22 10:15:50;;;;;;;22.75;15.07;;;31.80;21.20;;;;;;4999567;28;20191;-51
2022/03/22 10:18:24;;;;;;;27.67;16.27;;;32.10;20.90;;;;;;5002966;28;20196;-50
2022/03/22 10:21:00;;;;;;;26.42;16.40;;;32.30;20.40;;;;;;5003823;28;20204;-51
2022/03/22 10:23:28;;;;;;;25.75;15.82;;;32.30;20.10;;;;;;4998559;28;20237;-47
2022/03/22 10:26:04;;;;;;;31.90;17.63;;;32.50;20.20;;;;;;4998092;28;20583;-51
2022/03/22 10:28:33;;;;;;;24.88;16.17;;;32.50;19.90;;;;;;4997298;28;20211;-51
2022/03/22 10:31:01;;;;;;;26.20;15.68;;;32.60;20.00;;;;;;5007769;28;20203;-48
2022/03/22 10:33:28;;;;;;;37.47;17.30;;;32.80;20.10;;;;;;5002618;28;20207;-48
2022/03/22 10:35:55;;;;;;;28.13;16.30;;;32.90;19.70;;;;;;5003924;28;20226;-48
2022/03/22 10:38:23;;;;;;;21.08;13.45;;;33.00;19.10;;;;;;5007387;28;20199;-47
2022/03/22 10:40:50;;;;;;;17.42;13.30;;;33.10;19.30;;;;;;5001109;28;20200;-50
2022/03/22 10:43:19;;;;;;;18.27;12.82;;;33.30;19.00;;;;;;4999925;28;20203;-47
2022/03/22 10:45:50;;;;;;;15.45;11.13;;;33.50;18.40;;;;;;5004485;28;20555;-49
2022/03/22 10:48:18;;;;;;;15.73;11.32;;;33.70;18.40;;;;;;5002822;28;20222;-47
2022/03/22 10:50:46;;;;;;;15.60;11.65;;;33.80;17.80;;;;;;4996856;28;20277;-48
2022/03/22 10:53:15;;;;;;;16.50;12.10;;;33.80;17.40;;;;;;5006298;28;20196;-51
2022/03/22 10:55:44;;;;;;;16.52;11.73;;;33.70;17.40;;;;;;5009816;28;20199;-48
2022/03/22 10:58:14;;;;;;;19.08;11.73;;;33.60;17.50;;;;;;5000547;28;20540;-45
2022/03/22 11:00:43;;;;;;;14.18;10.18;;;33.50;17.00;;;;;;4999059;28;20195;-50
2022/03/22 11:03:13;;;;;;;14.43;9.90;;;33.40;17.10;;;;;;5007165;28;20211;-47
2022/03/22 11:05:42;;;;;;;9.95;8.10;;;33.50;17.30;;;;;;5001915;28;20307;-46
2022/03/22 11:08:09;;;;;;;13.73;10.45;;;33.70;17.40;;;;;;5005118;28;20656;-47
2022/03/22 11:10:36;;;;;;;14.10;10.00;;;33.90;17.00;;;;;;5008860;28;20278;-50
2022/03/22 11:13:04;;;;;;;13.98;9.40;;;34.00;16.90;;;;;;4992884;28;20207;-48
2022/03/22 11:15:36;;;;;;;17.15;11.20;;;34.10;16.80;;;;;;5004209;28;20191;-48
2022/03/22 11:18:05;;;;;;;12.02;9.02;;;34.20;16.50;;;;;;5005127;28;20192;-48
2022/03/22 11:20:34;;;;;;;12.82;9.48;;;34.20;16.70;;;;;;4998731;28;20203;-46
2022/03/22 11:23:02;;;;;;;12.50;10.05;;;34.30;16.70;;;;;;5005031;28;20224;-49
2022/03/22 11:25:35;;;;;;;14.38;11.00;;;34.50;16.20;;;;;;4989432;28;20203;-51
2022/03/22 11:28:06;;;;;;;14.63;11.13;;;34.40;15.80;;;;;;5008957;28;20602;-51
2022/03/22 11:30:35;;;;;;;15.52;11.20;;;34.00;15.70;;;;;;4999759;28;20204;-51
2022/03/22 11:35:52;;;;;;;16.75;11.07;;;33.70;16.00;;;;;;5005988;28;20244;-44
2022/03/22 11:38:44;;;;;;;12.48;9.90;;;33.60;15.60;;;;;;5002381;28;20192;-50
2022/03/22 11:44:16;;;;;;;10.93;8.30;;;33.70;15.90;;;;;;4995011;28;20197;-51
2022/03/22 11:46:44;;;;;;;12.55;9.57;;;34.00;16.00;;;;;;5005848;28;20716;-47
2022/03/22 11:49:16;;;;;;;11.65;9.50;;;34.30;15.70;;;;;;5013780;28;20203;-48
2022/03/22 11:51:53;;;;;;;16.38;10.27;;;34.40;15.80;;;;;;5003260;28;20199;-47
2022/03/22 11:54:21;;;;;;;9.63;8.30;;;34.30;15.60;;;;;;4997216;28;20600;-52
2022/03/22 11:56:50;;;;;;;11.77;9.73;;;34.40;15.80;;;;;;4999711;28;20206;-47
2022/03/22 11:59:19;;;;;;;11.35;8.63;;;34.50;15.50;;;;;;4989984;28;20207;-48
2022/03/22 12:01:58;;;;;;;10.60;9.00;;;34.60;15.80;;;;;;5001332;28;20203;-44
2022/03/22 12:04:39;;;;;;;10.18;8.60;;;34.60;15.60;;;;;;5006136;28;20292;-47
2022/03/22 12:07:10;;;;;;;10.45;9.25;;;34.70;15.30;;;;;;5026380;28;20225;-44
2022/03/22 12:09:40;;;;;;;9.93;8.82;;;34.50;14.90;;;;;;5028644;28;20298;-46
2022/03/22 12:12:09;;;;;;;12.52;9.20;;;34.30;15.10;;;;;;5028279;28;20218;-51
2022/03/22 12:14:37;;;;;;;12.80;8.70;;;34.40;15.00;;;;;;5027819;28;20191;-45
2022/03/22 12:17:05;;;;;;;13.25;9.15;;;34.50;15.10;;;;;;5028032;28;20676;-46
2022/03/22 12:19:36;;;;;;;13.48;9.18;;;34.60;14.80;;;;;;5029024;28;20203;-48
2022/03/22 12:22:06;;;;;;;12.38;9.07;;;34.50;14.70;;;;;;5021305;28;20233;-49
2022/03/22 12:24:36;;;;;;;14.55;10.20;;;34.40;14.70;;;;;;5007176;28;20207;-47
2022/03/22 12:27:05;;;;;;;12.05;9.05;;;34.10;14.50;;;;;;5026976;28;20186;-47
2022/03/22 12:29:39;;;;;;;10.82;8.10;;;34.00;14.80;;;;;;5008240;28;20237;-48
2022/03/22 12:32:12;;;;;;;10.75;8.52;;;33.90;14.90;;;;;;5028448;28;20198;-48
2022/03/22 12:34:39;;;;;;;10.18;8.45;;;33.90;14.90;;;;;;5030444;28;20252;-45
2022/03/22 12:37:08;;;;;;;11.10;8.25;;;33.80;14.60;;;;;;5027508;28;20256;-51
2022/03/22 12:39:38;;;;;;;11.85;8.80;;;33.90;14.90;;;;;;5026461;28;20191;-48
2022/03/22 12:42:07;;;;;;;11.48;7.80;;;33.90;14.80;;;;;;5016746;28;20607;-49
2022/03/22 12:44:35;;;;;;;9.13;6.88;;;34.00;14.80;;;;;;5028091;28;20605;-48
2022/03/22 12:47:04;;;;;;;13.60;9.48;;;34.10;15.10;;;;;;5017454;28;20574;-50
2022/03/22 12:49:32;;;;;;;10.55;8.43;;;34.20;14.60;;;;;;5021005;28;20226;-48
2022/03/22 12:52:00;;;;;;;13.63;9.57;;;34.20;14.80;;;;;;5026187;28;20610;-47
2022/03/22 12:54:33;;;;;;;12.02;9.30;;;34.00;14.40;;;;;;5024950;28;20205;-49
2022/03/22 12:57:03;;;;;;;9.55;8.20;;;33.80;14.60;;;;;;5028495;28;20218;-48
2022/03/22 12:59:31;;;;;;;9.43;7.53;;;33.90;14.80;;;;;;5029089;28;20197;-50
2022/03/22 13:01:59;;;;;;;8.00;6.90;;;34.30;14.90;;;;;;5025325;28;20672;-49
2022/03/22 13:04:29;;;;;;;8.55;7.38;;;34.70;14.80;;;;;;5027170;28;20290;-45
2022/03/22 13:06:59;;;;;;;10.20;8.30;;;35.00;14.70;;;;;;5027225;28;20229;-50
2022/03/22 13:12:14;;;;;;;11.65;9.02;;;35.20;14.30;;;;;;5008563;28;20668;-48
2022/03/22 13:17:29;;;;;;;12.70;9.63;;;32.70;14.50;;;;;;5025839;28;20190;-52
2022/03/22 13:19:57;;;;;;;11.85;8.50;;;30.90;14.90;;;;;;5021028;28;20191;-51
2022/03/22 13:22:27;;;;;;;13.35;8.88;;;29.40;15.40;;;;;;5028077;28;20199;-51